AirNav   Air Wisconsin Up To $57,000 Bonus
 
 1103 users online  

3AZ1 Pixley-Richards Gilbert Heliport
Gilbert, Arizona, USA

GOING TO GILBERT?


FAA INFORMATION EFFECTIVE 08 SEPTEMBER 2022

Location

FAA Identifier: 3AZ1
Lat/Long: 33-22-20.1710N 111-50-11.5020W
33-22.336183N 111-50.191700W
33.3722697,-111.8365283
(estimated)
Elevation: 1231 ft. / 375 m (estimated)
Variation: 13E (1985)
Time zone: UTC -7 (year round; does not observe DST)
Zip code: 85233

Heliport Operations

Heliport use: Private use. Permission required prior to landing
Activation date: 04/1988
Control tower: no
ARTCC: ALBUQUERQUE CENTER
FSS: PRESCOTT FLIGHT SERVICE STATION
Attendance: UNATNDD
Segmented circle: no

Heliport Communications

WX AWOS-3PT at CHD (6 nm S): PHONE 480-814-9952
WX ASOS at FFZ (8 nm NE): PHONE 480-641-4111
WX ASOS at PHX (10 nm NW): PHONE 602-231-8557
WX AWOS-3 at IWA (10 nm SE): 133.5 (480-988-9428)
WX ASOS at SDL (15 nm N): PHONE 480-483-3049

Nearby radio navigation aids

VOR radial/distance  VOR name  Freq  Var
PXRr107/7.6PHOENIX VORTAC115.6012E
IWAr281/10.2WILLIE VORTAC113.3013E
TFDr355/29.4STANFIELD VORTAC114.8012E

Heliport Services

Runway Information

Helipad H1

Dimensions: 38 x 38 ft. / 12 x 12 m
Surface: concrete
ROOFTOP
Traffic pattern: leftleft

Heliport Ownership and Management from official FAA records

Ownership: Privately-owned
Owner: INTESYS TECHNOLOGIES INC
1300 N FIESTA BLVD
GILBERT, AZ 85234
Phone 602-497-1401
Manager: ROBERT T HILL
1300 N FIESTA BLVD
GILBERT, AZ 85234
Phone 602-497-1401

Additional Remarks

FOR CD CTC PHOENIX APCH AT 602-306-2565.

Instrument Procedures

There are no published instrument procedures at 3AZ1.

Some nearby airports with instrument procedures:

P19 - Stellar Airpark (6 nm SW)
KCHD - Chandler Municipal Airport (6 nm S)
KFFZ - Falcon Field Airport (8 nm NE)
KPHX - Phoenix Sky Harbor International Airport (10 nm NW)
KIWA - Phoenix-Mesa Gateway Airport (10 nm SE)
KSDL - Scottsdale Airport (15 nm N)
 
Loc | Ops | Rwys | IFR | FBO | Links
Com | Nav | Svcs | Stats | Notes
Area around 3AZ1 (Pixley-Richards Gilbert Heliport)
 
Road maps at: MapQuest Bing Google
 
Aerial photo
No photo
 
Sectional chart

 
Airport distance calculator
Flying to Pixley-Richards Gilbert Heliport? Find the distance to fly.

From to 3AZ1

Sunrise and sunset
Times for 02-Oct-2022
 Local
(UTC-7)
 Zulu
(UTC)
Morning civil twilight05:5912:59
Sunrise06:2313:23
Sunset18:1001:10
Evening civil twilight18:3501:35

Current date and time
Zulu (UTC)  02-Oct-2022 21:56:41
Local (UTC-7)  02-Oct-2022 14:56:41
 
METAR
KCHD 
6nm S 
022047Z 18004KT 10SM FEW100 34/12 A2987
KFFZ 
8nm NE 
022054Z 26003G14KT 10SM CLR 34/11 A2986 RMK AO2 SLP087 T03390111 58024
KIWA 
10nm SE 
022049Z VRB03KT 10SM CLR 34/11 A2989
KPHX 
11nm W 
022051Z VRB03KT 10SM FEW100 SCT250 34/12 A2984 RMK AO2 SLP084 CB DSNT NW T03440117 58023 $
KSDL 
15nm N 
022053Z 27005KT 10SM CLR 34/12 A2989 RMK AO2 SLP094 T03440117 58021
TAF
KIWA 
10nm SE 
021720Z 0218/0318 18008KT P6SM FEW100 FEW150 FM022200 22007KT P6SM FEW100 FEW150 FM030000 26006KT P6SM FEW100 FEW150 FM030300 07005KT P6SM FEW100 SCT150 SCT250 FM030500 13008KT P6SM FEW100 FEW150
KPHX 
11nm W 
021720Z 0218/0324 16007KT P6SM FEW100 FEW150 FM022200 21007KT P6SM FEW100 FEW150 FM030000 25006KT P6SM FEW100 FEW150 FM030400 10005KT P6SM FEW100 SCT150 SCT250 FM031700 14008KT P6SM FEW100 FEW150 FM032100 28008KT P6SM FEW100 FEW150
KSDL 
15nm N 
021720Z 0218/0318 VRB04KT P6SM FEW100 FEW150 FM022100 21007KT P6SM FEW100 FEW150 FM030300 04005KT P6SM FEW100 SCT150 SCT250 FM030800 VRB03KT P6SM FEW100 FEW150
NOTAMs
Click for the latest NOTAMs
NOTAMs are issued by the DoD/FAA and will open in a separate window not controlled by AirNav.

 

 
 

Would you like to see your business listed on this page?

 If your business provides an interesting product or service to pilots, flight crews, aircraft, or users of the Pixley-Richards Gilbert Heliport, you should consider listing it here.  To start the listing process, click on the button below
 
Add a business
 

Other Pages about Pixley-Richards Gilbert Heliport

Update a link
 
Copyright © AirNav, LLC. All rights reserved. Privacy Policy  Contact